createdAt,value
2022-12-01T00:00:10.579Z,26.08
2022-12-01T00:02:56.226Z,22.90
2022-12-01T00:05:41.898Z,18.88
2022-12-01T00:08:28.416Z,25.67
2022-12-01T00:11:15.026Z,20.67
2022-12-01T00:14:00.465Z,17.80
2022-12-01T00:16:46.514Z,20.95
2022-12-01T00:19:32.175Z,17.73
2022-12-01T00:22:17.494Z,17.20
2022-12-01T00:25:02.775Z,17.52
2022-12-01T00:27:50.102Z,13.18
2022-12-01T00:30:35.781Z,16.52
2022-12-01T00:33:21.225Z,14.95
2022-12-01T00:36:07.089Z,18.85
2022-12-01T00:38:56.761Z,15.20
2022-12-01T00:41:42.602Z,18.25
2022-12-01T00:44:28.573Z,29.42
2022-12-01T00:47:15.547Z,36.63
2022-12-01T00:50:00.908Z,37.78
2022-12-01T00:52:46.462Z,34.08
2022-12-01T00:55:31.964Z,35.10
2022-12-01T00:58:17.342Z,31.60
2022-12-01T01:01:03.639Z,22.60
2022-12-01T01:03:49.556Z,28.73
2022-12-01T01:06:35.237Z,26.02
2022-12-01T01:09:21.017Z,25.35
2022-12-01T01:12:06.337Z,24.10
2022-12-01T01:14:52.059Z,29.77
2022-12-01T01:17:37.317Z,23.10
2022-12-01T01:20:22.679Z,24.52
2022-12-01T01:23:08.621Z,26.20
2022-12-01T01:25:54.154Z,20.67
2022-12-01T01:28:41.791Z,24.77
2022-12-01T01:31:29.940Z,19.13
2022-12-01T01:34:15.240Z,22.40
2022-12-01T01:37:01.535Z,18.42
2022-12-01T01:39:47.390Z,16.05
2022-12-01T01:42:33.152Z,16.58
2022-12-01T01:45:24.484Z,17.48
2022-12-01T01:48:13.584Z,16.87
2022-12-01T01:50:59.201Z,20.17
2022-12-01T01:53:46.617Z,12.73
2022-12-01T01:56:32.760Z,16.45
2022-12-01T01:59:24.493Z,15.27
2022-12-01T02:02:11.343Z,16.05
2022-12-01T02:05:02.605Z,12.80
2022-12-01T02:07:51.019Z,13.88
2022-12-01T02:11:07.052Z,9.25
2022-12-01T02:14:18.714Z,4.57
2022-12-01T02:17:29.720Z,6.35
2022-12-01T02:20:21.160Z,6.57
2022-12-01T02:23:40.431Z,7.50
2022-12-01T02:26:44.803Z,9.52
2022-12-01T02:29:36.192Z,8.95
2022-12-01T02:32:37.288Z,7.45
2022-12-01T02:35:31.819Z,7.88
2022-12-01T02:38:20.345Z,8.70
2022-12-01T02:41:20.163Z,10.82
2022-12-01T02:44:17.223Z,11.77
2022-12-01T02:47:05.686Z,8.02
2022-12-01T02:49:55.331Z,8.85
2022-12-01T02:52:42.689Z,8.15
2022-12-01T02:55:28.125Z,10.00
2022-12-01T02:58:14.964Z,8.27
2022-12-01T03:01:38.154Z,6.30
2022-12-01T03:04:56.516Z,9.93
2022-12-01T03:07:48.025Z,9.45
2022-12-01T03:10:52.039Z,11.40
2022-12-01T03:13:58.023Z,10.52
2022-12-01T03:17:07.540Z,7.90
2022-12-01T03:20:04.362Z,15.60
2022-12-01T03:22:56.723Z,17.98
2022-12-01T03:25:48.114Z,21.55
2022-12-01T03:28:40.273Z,15.90
2022-12-01T03:31:33.056Z,13.70
2022-12-01T03:34:28.920Z,19.98
2022-12-01T03:37:37.139Z,15.52
2022-12-01T03:40:27.262Z,19.00
2022-12-01T03:43:19.246Z,22.20
2022-12-01T03:46:10.904Z,23.85
2022-12-01T03:48:56.207Z,21.30
2022-12-01T03:51:52.087Z,22.55
2022-12-01T03:54:58.733Z,23.55
2022-12-01T03:58:05.494Z,26.13
2022-12-01T04:00:57.677Z,21.02
2022-12-01T04:03:46.075Z,21.15
2022-12-01T04:06:31.607Z,23.10
2022-12-01T04:09:17.504Z,21.98
2022-12-01T04:12:21.611Z,21.85
2022-12-01T04:15:11.196Z,23.05
2022-12-01T04:17:56.803Z,23.20
2022-12-01T04:20:43.553Z,22.50
2022-12-01T04:23:47.435Z,19.33
2022-12-01T04:26:35.589Z,24.40
2022-12-01T04:29:21.088Z,23.02
2022-12-01T04:32:06.489Z,19.77
2022-12-01T04:34:51.857Z,18.23
2022-12-01T04:37:39.292Z,14.18
2022-12-01T04:40:24.778Z,15.75
2022-12-01T04:43:10.161Z,13.82
2022-12-01T04:45:55.377Z,8.15
2022-12-01T04:48:41.240Z,9.50
2022-12-01T04:51:26.881Z,8.55
2022-12-01T04:54:12.800Z,10.00
2022-12-01T04:56:58.248Z,9.93
2022-12-01T04:59:43.556Z,5.63
2022-12-01T05:02:29.079Z,5.75
2022-12-01T05:05:14.885Z,4.25
2022-12-01T05:08:00.308Z,7.93
2022-12-01T05:10:46.221Z,7.18
2022-12-01T05:13:31.555Z,6.32
2022-12-01T05:16:23.318Z,6.95
2022-12-01T05:19:27.756Z,4.97
2022-12-01T05:22:13.641Z,3.63
2022-12-01T05:24:59.744Z,3.22
2022-12-01T05:27:45.083Z,2.35
2022-12-01T05:30:30.598Z,2.17
2022-12-01T05:33:15.892Z,3.95
2022-12-01T05:36:01.458Z,10.45
2022-12-01T05:38:46.910Z,8.10
2022-12-01T05:41:32.365Z,3.00
2022-12-01T05:44:17.743Z,2.75
2022-12-01T05:47:03.298Z,1.65
2022-12-01T05:49:49.091Z,6.07
2022-12-01T05:52:38.077Z,7.15
2022-12-01T05:55:23.712Z,5.75
2022-12-01T05:58:10.318Z,2.08
2022-12-01T06:00:55.884Z,5.55
2022-12-01T06:03:41.396Z,1.98
2022-12-01T06:06:26.563Z,7.88
2022-12-01T06:09:12.045Z,4.65
2022-12-01T06:11:57.662Z,3.92
2022-12-01T06:14:42.992Z,2.35
2022-12-01T06:17:28.492Z,3.53
2022-12-01T06:20:13.982Z,5.93
2022-12-01T06:22:59.715Z,7.00
2022-12-01T06:25:45.208Z,1.75
2022-12-01T06:28:30.611Z,7.32
2022-12-01T06:31:16.084Z,3.50
2022-12-01T06:34:01.303Z,4.30
2022-12-01T06:36:46.763Z,2.80
2022-12-01T06:39:32.259Z,4.72
2022-12-01T06:42:17.638Z,2.47
2022-12-01T06:45:03.267Z,7.13
2022-12-01T06:47:48.703Z,3.38
2022-12-01T06:50:34.078Z,7.18
2022-12-01T06:53:19.433Z,4.70
2022-12-01T06:56:05.396Z,3.10
2022-12-01T06:58:51.562Z,4.15
2022-12-01T07:01:37.063Z,2.67
2022-12-01T07:04:22.543Z,2.17
2022-12-01T07:07:08.449Z,3.97
2022-12-01T07:09:53.971Z,4.10
2022-12-01T07:12:39.509Z,1.75
2022-12-01T07:15:25.029Z,9.88
2022-12-01T07:18:10.413Z,2.08
2022-12-01T07:21:04.196Z,4.57
2022-12-01T07:23:49.803Z,1.00
2022-12-01T07:26:35.804Z,3.42
2022-12-01T07:29:21.129Z,5.78
2022-12-01T07:32:06.720Z,4.57
2022-12-01T07:34:52.104Z,3.70
2022-12-01T07:37:37.799Z,4.18
2022-12-01T07:40:23.833Z,1.50
2022-12-01T07:43:09.494Z,2.22
2022-12-01T07:45:54.908Z,4.72
2022-12-01T07:48:41.585Z,4.45
2022-12-01T07:51:27.612Z,4.72
2022-12-01T07:54:17.026Z,7.35
2022-12-01T07:57:02.159Z,4.45
2022-12-01T07:59:47.824Z,4.80
2022-12-01T08:02:33.998Z,3.72
2022-12-01T08:05:19.421Z,4.72
2022-12-01T08:08:05.186Z,7.38
2022-12-01T08:10:50.876Z,7.25
2022-12-01T08:13:36.739Z,8.52
2022-12-01T08:16:24.364Z,2.67
2022-12-01T08:19:12.936Z,4.93
2022-12-01T08:21:58.325Z,5.18
2022-12-01T08:24:43.720Z,5.10
2022-12-01T08:27:29.171Z,6.40
2022-12-01T08:30:14.822Z,6.30
2022-12-01T08:33:00.162Z,5.22
2022-12-01T08:35:45.468Z,13.07
2022-12-01T08:38:31.413Z,7.60
2022-12-01T08:41:17.527Z,6.28
2022-12-01T08:44:03.152Z,10.55
2022-12-01T08:46:48.662Z,9.48
2022-12-01T08:49:35.318Z,7.18
2022-12-01T08:52:20.941Z,5.10
2022-12-01T08:55:07.755Z,5.18
2022-12-01T08:57:55.967Z,7.53
2022-12-01T09:00:41.458Z,7.15
2022-12-01T09:03:26.656Z,10.65
2022-12-01T09:06:20.263Z,10.15
2022-12-01T09:09:05.940Z,8.30
2022-12-01T09:11:54.754Z,9.70
2022-12-01T09:14:42.749Z,11.05
2022-12-01T09:17:28.774Z,9.20
2022-12-01T09:20:14.464Z,7.32
2022-12-01T09:22:59.881Z,4.85
2022-12-01T09:25:45.309Z,8.43
2022-12-01T09:28:30.740Z,8.35
2022-12-01T09:31:18.419Z,10.93
2022-12-01T09:34:06.908Z,15.55
2022-12-01T09:36:58.523Z,11.30
2022-12-01T09:39:44.087Z,21.05
2022-12-01T09:42:35.247Z,9.93
2022-12-01T09:45:35.903Z,24.45
2022-12-01T09:48:42.729Z,24.27
2022-12-01T09:51:30.185Z,22.48
2022-12-01T09:54:16.024Z,16.00
2022-12-01T09:57:01.803Z,13.73
2022-12-01T09:59:47.646Z,10.10
2022-12-01T10:02:42.345Z,10.25
2022-12-01T10:05:35.339Z,14.23
2022-12-01T10:08:27.143Z,16.33
2022-12-01T10:11:37.049Z,18.75
2022-12-01T10:14:22.868Z,15.98
2022-12-01T10:17:17.702Z,18.48
2022-12-01T10:20:21.159Z,17.00
2022-12-01T10:23:31.341Z,18.08
2022-12-01T10:26:42.652Z,11.57
2022-12-01T10:29:43.724Z,22.10
2022-12-01T10:32:54.860Z,15.48
2022-12-01T10:35:41.786Z,22.55
2022-12-01T10:38:34.682Z,18.17
2022-12-01T10:41:23.348Z,19.83
2022-12-01T10:44:09.825Z,17.98
2022-12-01T10:46:57.112Z,18.40
2022-12-01T10:49:42.510Z,16.85
2022-12-01T10:52:39.795Z,20.70
2022-12-01T10:55:40.900Z,16.17
2022-12-01T10:58:42.754Z,18.23
2022-12-01T11:01:34.822Z,20.90
2022-12-01T11:07:42.728Z,23.73
2022-12-01T11:10:33.434Z,19.58
2022-12-01T11:13:31.340Z,25.50
2022-12-01T11:16:44.889Z,22.55
2022-12-01T11:19:34.323Z,20.17
2022-12-01T11:22:32.686Z,27.55
2022-12-01T11:25:22.367Z,15.70
2022-12-01T11:28:20.163Z,20.88
2022-12-01T11:31:08.774Z,15.82
2022-12-01T11:33:56.503Z,14.32
2022-12-01T11:36:48.890Z,20.42
2022-12-01T11:39:38.590Z,19.67
2022-12-01T11:42:28.542Z,16.60
2022-12-01T11:45:33.893Z,14.70
2022-12-01T11:48:25.963Z,13.63
2022-12-01T11:51:20.186Z,10.40
2022-12-01T11:54:20.748Z,9.75
2022-12-01T11:57:33.291Z,15.25
2022-12-01T12:00:17.684Z,13.35
2022-12-01T12:03:33.302Z,9.82
2022-12-01T12:06:39.809Z,6.65
2022-12-01T12:09:50.493Z,8.27
2022-12-01T12:12:39.472Z,9.80
2022-12-01T12:15:33.850Z,8.00
2022-12-01T12:18:19.399Z,8.60
2022-12-01T12:21:33.113Z,2.33
2022-12-01T12:24:37.339Z,2.28
2022-12-01T12:27:52.423Z,5.40
2022-12-01T12:30:49.052Z,5.97
2022-12-01T12:34:16.349Z,4.28
2022-12-01T12:37:22.859Z,6.00
2022-12-01T12:40:35.294Z,2.63
2022-12-01T12:46:11.437Z,5.63
2022-12-01T12:49:26.373Z,7.07
2022-12-01T12:52:43.775Z,7.57
2022-12-01T12:55:32.402Z,5.22
2022-12-01T12:58:25.343Z,7.35
2022-12-01T13:01:21.321Z,5.07
2022-12-01T13:04:16.568Z,7.50
2022-12-01T13:07:08.145Z,4.78
2022-12-01T13:10:00.855Z,5.13
2022-12-01T13:12:56.294Z,4.80
2022-12-01T13:15:43.958Z,6.43
2022-12-01T13:18:39.643Z,7.88
2022-12-01T13:21:25.934Z,7.05
2022-12-01T13:24:22.683Z,7.45
2022-12-01T13:27:25.067Z,7.50
2022-12-01T13:30:20.599Z,6.95
2022-12-01T13:33:07.264Z,7.53
2022-12-01T13:36:22.607Z,4.30
2022-12-01T13:39:02.006Z,6.00
2022-12-01T13:41:58.603Z,6.75
2022-12-01T13:44:51.735Z,5.28
2022-12-01T13:47:46.815Z,2.50
2022-12-01T13:50:43.176Z,4.05
2022-12-01T13:53:33.260Z,5.40
2022-12-01T13:56:18.579Z,4.55
2022-12-01T13:59:24.074Z,3.85
2022-12-01T14:02:20.048Z,3.92
2022-12-01T14:05:24.807Z,5.93
2022-12-01T14:08:23.684Z,7.63
2022-12-01T14:11:27.688Z,2.90
2022-12-01T14:14:25.967Z,4.88
2022-12-01T14:17:30.931Z,5.85
2022-12-01T14:20:23.005Z,7.90
2022-12-01T14:23:33.900Z,5.15
2022-12-01T14:26:22.627Z,6.10
2022-12-01T14:29:22.360Z,5.20
2022-12-01T14:32:08.380Z,4.68
2022-12-01T14:34:55.548Z,8.25
2022-12-01T14:37:45.911Z,3.40
2022-12-01T14:40:31.742Z,2.55
2022-12-01T14:43:35.856Z,7.85
2022-12-01T14:46:25.422Z,3.47
2022-12-01T14:49:17.862Z,5.80
2022-12-01T14:52:07.206Z,5.82
2022-12-01T14:54:56.485Z,6.35
2022-12-01T14:57:46.462Z,3.22
2022-12-01T15:00:36.910Z,5.60
2022-12-01T15:03:27.612Z,2.83
2022-12-01T15:06:21.894Z,4.32
2022-12-01T15:09:34.893Z,12.37
2022-12-01T15:12:27.831Z,5.65
2022-12-01T15:15:24.276Z,10.48
2022-12-01T15:18:22.229Z,5.25
2022-12-01T15:21:28.918Z,3.42
2022-12-01T15:24:21.785Z,12.07
2022-12-01T15:27:25.114Z,4.18
2022-12-01T15:30:15.585Z,6.47
2022-12-01T15:33:01.396Z,8.65
2022-12-01T15:35:48.158Z,7.00
2022-12-01T15:38:36.908Z,7.60
2022-12-01T15:41:31.295Z,5.63
2022-12-01T15:44:33.141Z,2.00
2022-12-01T15:47:33.249Z,4.72
2022-12-01T15:50:42.657Z,4.00
2022-12-01T15:53:34.507Z,4.45
2022-12-01T15:56:33.345Z,7.05
2022-12-01T15:59:37.186Z,3.88
2022-12-01T16:02:25.893Z,6.65
2022-12-01T16:05:14.394Z,4.28
2022-12-01T16:08:24.404Z,10.57
2022-12-01T16:11:21.634Z,14.10
2022-12-01T16:14:19.466Z,11.40
2022-12-01T16:17:09.053Z,12.73
2022-12-01T16:20:20.668Z,10.77
2022-12-01T16:23:15.475Z,12.23
2022-12-01T16:26:02.210Z,11.63
2022-12-01T16:28:47.905Z,9.52
2022-12-01T16:31:33.369Z,10.20
2022-12-01T16:34:44.658Z,8.07
2022-12-01T16:37:27.917Z,9.70
2022-12-01T16:40:14.133Z,9.90
2022-12-01T16:42:59.714Z,11.57
2022-12-01T16:45:50.269Z,17.42
2022-12-01T16:48:37.700Z,10.95
2022-12-01T16:51:29.937Z,19.27
2022-12-01T16:54:28.451Z,16.40
2022-12-01T16:57:14.045Z,20.50
2022-12-01T16:59:59.598Z,29.00
2022-12-01T17:02:52.729Z,18.00
2022-12-01T17:05:38.952Z,27.92
2022-12-01T17:08:24.399Z,29.75
2022-12-01T17:11:09.823Z,22.42
2022-12-01T17:13:55.387Z,21.05
2022-12-01T17:16:40.642Z,20.35
2022-12-01T17:19:26.085Z,30.67
2022-12-01T17:22:11.408Z,33.13
2022-12-01T17:24:56.697Z,22.70
2022-12-01T17:27:43.937Z,20.10
2022-12-01T17:30:29.406Z,26.73
2022-12-01T17:33:14.838Z,23.27
2022-12-01T17:36:19.071Z,25.83
2022-12-01T17:39:04.726Z,16.23
2022-12-01T17:41:50.307Z,20.88
2022-12-01T17:44:35.853Z,32.20
2022-12-01T17:47:21.063Z,16.65
2022-12-01T17:50:07.227Z,23.80
2022-12-01T17:52:52.768Z,20.75
2022-12-01T17:55:41.443Z,28.05
2022-12-01T17:58:27.279Z,36.67
2022-12-01T18:01:15.986Z,37.45
2022-12-01T18:04:01.678Z,23.40
2022-12-01T18:06:53.607Z,21.88
2022-12-01T18:09:39.623Z,18.15
2022-12-01T18:12:25.176Z,12.82
2022-12-01T18:15:12.234Z,10.88
2022-12-01T18:17:57.829Z,10.02
2022-12-01T18:20:44.798Z,21.38
2022-12-01T18:23:30.517Z,41.00
2022-12-01T18:26:16.390Z,44.10
2022-12-01T18:29:18.606Z,44.03
2022-12-01T18:32:04.237Z,37.78
2022-12-01T18:34:50.100Z,33.95
2022-12-01T18:37:36.848Z,29.65
2022-12-01T18:40:23.327Z,29.98
2022-12-01T18:43:08.849Z,30.88
2022-12-01T18:45:55.296Z,26.63
2022-12-01T18:48:48.964Z,29.58
2022-12-01T18:51:36.738Z,31.08
2022-12-01T18:54:22.136Z,25.20
2022-12-01T18:57:07.658Z,25.63
2022-12-01T18:59:53.287Z,26.25
2022-12-01T19:02:38.592Z,21.70
2022-12-01T19:05:24.119Z,17.42
2022-12-01T19:08:09.815Z,21.95
2022-12-01T19:11:00.722Z,28.90
2022-12-01T19:13:46.596Z,17.48
2022-12-01T19:16:33.051Z,18.77
2022-12-01T19:19:18.820Z,15.38
2022-12-01T19:22:04.401Z,12.02
2022-12-01T19:24:51.763Z,13.13
2022-12-01T19:27:37.970Z,26.25
2022-12-01T19:30:24.376Z,13.25
2022-12-01T19:33:11.036Z,19.90
2022-12-01T19:35:56.469Z,24.35
2022-12-01T19:38:44.759Z,25.55
2022-12-01T19:41:30.430Z,24.52
2022-12-01T19:44:16.130Z,24.92
2022-12-01T19:47:03.766Z,23.20
2022-12-01T19:49:49.174Z,22.75
2022-12-01T19:52:36.148Z,22.45
2022-12-01T19:55:21.445Z,16.42
2022-12-01T19:58:07.846Z,24.98
2022-12-01T20:00:53.307Z,19.15
2022-12-01T20:03:40.765Z,21.08
2022-12-01T20:06:28.532Z,14.95
2022-12-01T20:09:15.909Z,13.55
2022-12-01T20:12:01.204Z,14.32
2022-12-01T20:14:46.603Z,15.57
2022-12-01T20:17:35.610Z,17.80
2022-12-01T20:20:21.257Z,15.07
2022-12-01T20:23:06.611Z,14.63
2022-12-01T20:25:51.894Z,16.92
2022-12-01T20:28:38.585Z,18.50
2022-12-01T20:31:26.985Z,16.50
2022-12-01T20:34:19.631Z,17.08
2022-12-01T20:37:05.459Z,21.10
2022-12-01T20:39:51.260Z,17.52
2022-12-01T20:42:39.749Z,20.20
2022-12-01T20:45:25.171Z,20.92
2022-12-01T20:48:12.386Z,24.90
2022-12-01T20:51:00.873Z,17.90
2022-12-01T20:54:05.603Z,16.73
2022-12-01T20:56:52.137Z,23.23
2022-12-01T20:59:37.595Z,20.42
2022-12-01T21:02:22.939Z,21.23
2022-12-01T21:05:08.250Z,22.38
2022-12-01T21:07:54.591Z,19.33
2022-12-01T21:10:44.815Z,15.90
2022-12-01T21:13:42.303Z,17.98
2022-12-01T21:16:30.963Z,20.52
2022-12-01T21:19:50.328Z,19.02
2022-12-01T21:22:36.488Z,17.95
2022-12-01T21:25:24.448Z,18.55
2022-12-01T21:28:24.719Z,18.52
2022-12-01T21:31:15.473Z,18.48
2022-12-01T21:34:01.887Z,19.85
2022-12-01T21:36:49.815Z,28.85
2022-12-01T21:39:35.556Z,17.95
2022-12-01T21:42:30.646Z,18.45
2022-12-01T21:45:26.632Z,16.48
2022-12-01T21:48:23.039Z,18.48
2022-12-01T21:51:23.163Z,20.80
2022-12-01T21:54:15.636Z,15.80
2022-12-01T21:57:01.024Z,20.70
2022-12-01T21:59:46.262Z,15.98
2022-12-01T22:02:49.565Z,18.50
2022-12-01T22:06:13.517Z,24.80
2022-12-01T22:09:00.734Z,19.92
2022-12-01T22:11:52.481Z,27.00
2022-12-01T22:14:38.762Z,44.10
2022-12-01T22:17:24.252Z,30.45
2022-12-01T22:20:22.526Z,17.73
2022-12-01T22:23:13.164Z,29.83
2022-12-01T22:25:58.861Z,23.50
2022-12-01T22:28:44.288Z,27.50
2022-12-01T22:31:29.981Z,22.75
2022-12-01T22:34:19.890Z,33.08
2022-12-01T22:37:34.251Z,30.00
2022-12-01T22:40:51.725Z,24.20
2022-12-01T22:43:51.758Z,24.00
2022-12-01T22:46:40.688Z,32.45
2022-12-01T22:49:26.352Z,23.85
2022-12-01T22:52:28.533Z,35.80
2022-12-01T22:55:15.545Z,22.00
2022-12-01T22:58:02.176Z,21.77
2022-12-01T23:00:47.627Z,18.02
2022-12-01T23:03:32.909Z,16.30
2022-12-01T23:06:57.426Z,18.65
2022-12-01T23:09:44.555Z,18.73
2022-12-01T23:12:32.985Z,13.48
2022-12-01T23:15:24.438Z,21.05
2022-12-01T23:18:23.464Z,18.90
2022-12-01T23:21:09.557Z,18.15
2022-12-01T23:23:55.206Z,18.58
2022-12-01T23:26:40.479Z,17.95
2022-12-01T23:29:25.911Z,16.90
2022-12-01T23:32:12.481Z,18.48
2022-12-01T23:35:00.320Z,19.10
2022-12-01T23:37:48.113Z,17.10
2022-12-01T23:40:35.366Z,16.85
2022-12-01T23:43:27.385Z,18.83
2022-12-01T23:46:27.228Z,14.20
2022-12-01T23:49:21.092Z,16.65
2022-12-01T23:52:11.016Z,12.25
2022-12-01T23:54:56.371Z,16.33
2022-12-01T23:57:41.777Z,18.90
